Time;durP1;ratioP1;P1;durP2;ratioP2;P2;SDS_P1;SDS_P2;PMS_P1;PMS_P2;Temp;Humidity;BMP_temperature;BMP_pressure;BME280_temperature;BME280_humidity;BME280_pressure;Samples;Min_cycle;Max_cycle;Signal;HPM_P1;HPM_P2
2022/11/10 00:00:35;;;;;;;147.20;56.65;;;3.00;99.90;;;;;;5075017;28;20059;-81
2022/11/10 00:03:05;;;;;;;148.88;59.00;;;3.10;99.90;;;;;;5073482;28;20021;-81
2022/11/10 00:05:32;;;;;;;143.63;60.05;;;3.30;99.90;;;;;;5073582;28;20024;-81
2022/11/10 00:08:06;;;;;;;154.60;58.22;;;3.30;99.90;;;;;;5074630;28;20044;-82
2022/11/10 00:10:55;;;;;;;148.63;61.13;;;3.40;99.90;;;;;;5073463;28;20024;-81
2022/11/10 00:13:18;;;;;;;162.38;63.35;;;3.50;99.90;;;;;;5074379;28;20504;-81
2022/11/10 00:18:27;;;;;;;167.65;65.05;;;3.70;99.90;;;;;;5074526;28;20053;-81
2022/11/10 00:20:53;;;;;;;154.48;62.42;;;3.70;99.90;;;;;;5082413;28;20036;-81
2022/11/10 00:23:18;;;;;;;170.50;64.97;;;3.70;99.90;;;;;;5093243;28;20016;-82
2022/11/10 00:25:44;;;;;;;160.75;60.58;;;3.70;99.90;;;;;;5094648;28;20085;-80
2022/11/10 00:28:10;;;;;;;158.55;60.22;;;3.70;99.90;;;;;;5110064;28;20028;-81
2022/11/10 00:30:36;;;;;;;148.13;58.35;;;3.70;99.90;;;;;;5093123;28;20165;-82
2022/11/10 00:33:02;;;;;;;147.60;56.72;;;3.80;99.90;;;;;;5094462;28;20414;-81
2022/11/10 00:35:27;;;;;;;135.23;53.13;;;3.80;99.90;;;;;;5110021;28;20085;-82
2022/11/10 00:37:53;;;;;;;164.85;60.55;;;3.80;99.90;;;;;;5094233;28;20032;-81
2022/11/10 00:40:19;;;;;;;150.98;55.92;;;3.80;99.90;;;;;;5091192;28;20036;-81
2022/11/10 00:42:44;;;;;;;138.18;52.85;;;3.70;99.90;;;;;;5089321;28;20494;-82
2022/11/10 00:45:10;;;;;;;123.70;49.28;;;3.70;99.90;;;;;;5073867;28;20029;-82
2022/11/10 00:47:35;;;;;;;125.70;48.60;;;3.60;99.90;;;;;;5089372;28;20485;-82
2022/11/10 00:50:01;;;;;;;127.43;49.13;;;3.60;99.90;;;;;;5073845;28;20051;-82
2022/11/10 00:52:27;;;;;;;124.20;46.80;;;3.50;99.90;;;;;;5073876;28;20024;-82
2022/11/10 00:54:52;;;;;;;115.05;48.65;;;3.50;99.90;;;;;;5073812;28;20074;-82
2022/11/10 00:57:18;;;;;;;131.88;51.03;;;3.50;99.90;;;;;;5072416;28;20110;-81
2022/11/10 00:59:43;;;;;;;108.75;45.28;;;3.50;99.90;;;;;;5073615;28;20412;-82
2022/11/10 01:02:09;;;;;;;114.18;47.50;;;3.50;99.90;;;;;;5089148;28;20063;-82
2022/11/10 01:04:34;;;;;;;100.18;43.85;;;3.50;99.90;;;;;;5089084;28;20450;-81
2022/11/10 01:07:00;;;;;;;112.72;44.13;;;3.40;99.90;;;;;;5089117;28;20044;-81
2022/11/10 01:09:26;;;;;;;102.22;40.50;;;3.40;99.90;;;;;;5072176;28;20032;-81
2022/11/10 01:11:51;;;;;;;86.20;38.38;;;3.30;99.90;;;;;;5089143;28;20021;-81
2022/11/10 01:14:17;;;;;;;91.15;42.85;;;3.10;99.90;;;;;;5073342;28;20032;-81
2022/11/10 01:16:42;;;;;;;92.90;40.05;;;3.10;99.90;;;;;;5088958;28;20550;-81
2022/11/10 01:19:08;;;;;;;92.93;41.22;;;3.00;99.90;;;;;;5073238;28;20103;-81
2022/11/10 01:21:33;;;;;;;96.68;38.83;;;2.90;99.90;;;;;;5073325;28;20454;-81
2022/11/10 01:23:59;;;;;;;87.47;44.03;;;2.90;99.90;;;;;;5088802;28;20070;-81
2022/11/10 01:26:25;;;;;;;117.97;53.22;;;2.80;99.90;;;;;;5072847;28;20025;-81
2022/11/10 01:28:50;;;;;;;181.77;73.85;;;2.60;99.90;;;;;;5088579;28;20027;-81
2022/11/10 01:31:19;;;;;;;115.05;50.15;;;2.60;99.90;;;;;;5073167;28;20044;-81
2022/11/10 01:33:44;;;;;;;89.22;41.53;;;2.50;99.90;;;;;;5072809;28;20571;-82
2022/11/10 01:36:11;;;;;;;101.20;43.47;;;2.50;99.90;;;;;;5073108;28;20138;-81
2022/11/10 01:38:40;;;;;;;84.82;38.15;;;2.40;99.90;;;;;;5073106;28;20020;-80
2022/11/10 01:41:08;;;;;;;320.10;127.65;;;2.40;99.90;;;;;;5072852;28;20045;-81
2022/11/10 01:43:35;;;;;;;149.82;68.85;;;2.20;99.90;;;;;;5088558;28;20116;-81
2022/11/10 01:46:01;;;;;;;133.20;55.28;;;2.20;99.90;;;;;;5088603;28;20048;-81
2022/11/10 01:48:48;;;;;;;149.85;64.07;;;2.10;99.90;;;;;;5072959;28;20067;-82
2022/11/10 01:51:33;;;;;;;141.73;62.40;;;2.10;99.90;;;;;;5071587;28;20021;-81
2022/11/10 01:54:07;;;;;;;148.77;63.97;;;2.00;99.90;;;;;;5072993;28;20017;-81
2022/11/10 01:56:37;;;;;;;108.10;50.80;;;2.00;99.90;;;;;;5073028;28;20106;-82
2022/11/10 01:59:08;;;;;;;92.03;38.10;;;2.00;99.90;;;;;;5072877;28;20035;-81
2022/11/10 02:01:33;;;;;;;93.68;42.92;;;2.00;99.90;;;;;;5071726;28;20033;-81
2022/11/10 02:04:03;;;;;;;78.25;37.25;;;2.00;99.90;;;;;;5072783;28;20104;-81
2022/11/10 02:06:36;;;;;;;66.22;33.10;;;1.90;99.90;;;;;;5071985;28;20048;-81
2022/11/10 02:09:02;;;;;;;74.20;31.70;;;2.00;99.90;;;;;;5072876;28;20024;-81
2022/11/10 02:11:29;;;;;;;86.25;39.88;;;2.00;99.90;;;;;;5071574;28;20033;-81
2022/11/10 02:13:55;;;;;;;125.75;53.42;;;2.00;99.90;;;;;;5072694;28;20031;-81
2022/11/10 02:16:22;;;;;;;85.18;39.65;;;1.90;99.90;;;;;;5072795;28;20114;-81
2022/11/10 02:18:48;;;;;;;97.82;43.88;;;1.80;99.90;;;;;;5072773;28;20021;-81
2022/11/10 02:21:16;;;;;;;101.45;46.97;;;1.70;99.90;;;;;;5100951;28;20561;-81
2022/11/10 02:23:46;;;;;;;103.70;46.95;;;1.70;99.90;;;;;;5108577;28;20021;-81
2022/11/10 02:26:14;;;;;;;103.30;45.25;;;1.70;99.90;;;;;;5092988;28;20031;-82
2022/11/10 02:28:40;;;;;;;90.88;40.97;;;1.70;99.90;;;;;;5108598;28;20050;-82
2022/11/10 02:31:08;;;;;;;92.72;41.70;;;1.70;99.90;;;;;;5092911;28;20025;-80
2022/11/10 02:33:34;;;;;;;87.13;38.53;;;1.70;99.90;;;;;;5108543;28;20074;-81
2022/11/10 02:36:00;;;;;;;145.25;59.25;;;1.70;99.90;;;;;;5108309;28;20093;-81
2022/11/10 02:38:25;;;;;;;87.72;39.88;;;1.70;99.90;;;;;;5076296;28;20486;-81
2022/11/10 02:40:51;;;;;;;79.03;36.05;;;1.70;99.90;;;;;;5091766;28;20399;-82
2022/11/10 02:43:18;;;;;;;94.97;39.63;;;1.70;99.90;;;;;;5076192;28;20086;-80
2022/11/10 02:45:44;;;;;;;82.65;35.03;;;1.80;99.90;;;;;;5076247;28;20090;-81
2022/11/10 02:48:11;;;;;;;89.85;40.47;;;1.80;99.90;;;;;;5091750;28;20021;-80
2022/11/10 02:50:37;;;;;;;93.97;40.13;;;1.80;99.90;;;;;;5075967;28;20026;-81
2022/11/10 02:53:03;;;;;;;116.18;48.53;;;1.80;99.90;;;;;;5074860;28;20020;-82
2022/11/10 02:55:28;;;;;;;111.90;51.80;;;1.80;99.90;;;;;;5074573;28;20021;-82
2022/11/10 02:57:54;;;;;;;108.38;48.42;;;1.90;99.90;;;;;;5076179;28;20031;-81
2022/11/10 03:00:20;;;;;;;105.75;47.38;;;1.80;99.90;;;;;;5091473;28;20020;-82
2022/11/10 03:02:46;;;;;;;97.20;43.97;;;1.80;99.90;;;;;;5091637;28;20489;-82
2022/11/10 03:05:11;;;;;;;101.07;47.33;;;1.80;99.90;;;;;;5074476;28;20063;-81
2022/11/10 03:07:37;;;;;;;103.13;49.03;;;1.80;99.90;;;;;;5091397;28;20013;-81
2022/11/10 03:10:04;;;;;;;108.53;45.17;;;1.70;99.90;;;;;;5091292;28;20514;-82
2022/11/10 03:12:30;;;;;;;92.90;42.38;;;1.70;99.90;;;;;;5091349;28;20062;-81
2022/11/10 03:14:56;;;;;;;89.47;43.03;;;1.70;99.90;;;;;;5091222;28;20394;-82
2022/11/10 03:17:21;;;;;;;101.07;46.78;;;1.70;99.90;;;;;;5074488;28;20043;-81
2022/11/10 03:19:48;;;;;;;87.75;40.10;;;1.70;99.90;;;;;;5074254;28;20494;-82
2022/11/10 03:22:13;;;;;;;111.07;46.00;;;1.70;99.90;;;;;;5075634;28;20074;-81
2022/11/10 03:24:39;;;;;;;190.13;75.28;;;1.70;99.90;;;;;;5075500;28;20025;-81
2022/11/10 03:27:05;;;;;;;131.45;58.08;;;1.70;99.90;;;;;;5074238;28;20426;-81
2022/11/10 03:29:31;;;;;;;141.32;57.28;;;1.80;99.90;;;;;;5075398;28;20028;-81
2022/11/10 03:31:56;;;;;;;118.70;51.80;;;1.80;99.90;;;;;;5075490;28;20470;-81
2022/11/10 03:34:22;;;;;;;113.90;48.88;;;1.80;99.90;;;;;;5075174;28;20409;-81
2022/11/10 03:36:48;;;;;;;111.43;45.10;;;1.80;99.90;;;;;;5073959;28;20032;-82
2022/11/10 03:39:13;;;;;;;109.15;49.95;;;1.90;99.90;;;;;;5074047;28;20032;-82
2022/11/10 03:41:39;;;;;;;103.28;48.08;;;1.90;99.90;;;;;;5073840;28;20443;-81
2022/11/10 03:44:05;;;;;;;97.57;47.40;;;1.90;99.90;;;;;;5073743;28;20116;-81
2022/11/10 03:46:30;;;;;;;98.00;43.38;;;2.00;99.90;;;;;;5073743;28;20017;-81
2022/11/10 03:48:56;;;;;;;84.20;39.47;;;2.00;99.90;;;;;;5073783;28;20024;-81
2022/11/10 03:51:22;;;;;;;102.43;44.45;;;2.00;99.90;;;;;;5074596;28;20055;-81
2022/11/10 03:53:48;;;;;;;110.55;48.15;;;2.00;99.90;;;;;;5073746;28;20013;-82
2022/11/10 03:56:13;;;;;;;101.22;45.42;;;2.10;99.90;;;;;;5074755;28;20393;-81
2022/11/10 03:58:39;;;;;;;95.90;40.83;;;2.10;99.90;;;;;;5074860;28;20024;-80
2022/11/10 04:01:05;;;;;;;98.05;43.03;;;2.20;99.90;;;;;;5090220;28;20057;-80
2022/11/10 04:03:31;;;;;;;116.78;50.47;;;2.20;99.90;;;;;;5090404;28;20056;-82
2022/11/10 04:08:59;;;;;;;180.18;77.43;;;2.30;99.90;;;;;;5074812;28;20052;-81
2022/11/10 04:16:55;;;;;;;139.05;59.90;;;2.40;99.90;;;;;;5074642;28;20127;-80
2022/11/10 04:19:21;;;;;;;128.68;54.28;;;2.40;99.90;;;;;;5073300;28;20082;-82
2022/11/10 04:21:46;;;;;;;135.85;52.25;;;2.50;99.90;;;;;;5092401;28;20016;-81
2022/11/10 04:24:12;;;;;;;90.20;38.50;;;2.50;99.90;;;;;;5094647;28;20432;-81
2022/11/10 04:26:39;;;;;;;90.97;38.33;;;2.50;99.90;;;;;;5110338;28;20020;-81
2022/11/10 04:29:09;;;;;;;96.05;39.88;;;2.60;99.90;;;;;;5093238;28;20016;-80
2022/11/10 04:31:38;;;;;;;109.07;49.58;;;2.70;99.90;;;;;;5110175;28;20358;-81
2022/11/10 04:34:09;;;;;;;112.95;50.67;;;2.70;99.90;;;;;;5110134;28;20031;-82
2022/11/10 04:36:36;;;;;;;114.65;49.65;;;2.70;99.90;;;;;;5094369;28;20451;-81
2022/11/10 04:39:03;;;;;;;115.90;54.65;;;2.70;99.90;;;;;;5094408;28;20465;-82
2022/11/10 04:41:29;;;;;;;107.13;48.17;;;2.70;99.90;;;;;;5109813;28;20047;-81
2022/11/10 04:43:56;;;;;;;101.75;45.10;;;2.70;99.90;;;;;;5110161;28;20393;-81
2022/11/10 04:46:23;;;;;;;123.85;53.00;;;2.70;99.90;;;;;;5104786;28;20487;-81
2022/11/10 04:48:49;;;;;;;127.03;56.10;;;2.80;99.90;;;;;;5072781;28;20028;-81
2022/11/10 04:51:17;;;;;;;127.47;57.67;;;2.80;99.90;;;;;;5073570;28;20393;-81
2022/11/10 04:53:42;;;;;;;91.40;41.03;;;2.80;99.90;;;;;;5072507;28;20020;-81
2022/11/10 04:56:16;;;;;;;106.05;43.83;;;2.90;99.90;;;;;;5073702;28;20032;-81
2022/11/10 04:58:42;;;;;;;112.32;46.58;;;3.00;99.90;;;;;;5072496;28;20494;-81
2022/11/10 05:01:11;;;;;;;96.10;44.85;;;3.10;99.90;;;;;;5071796;28;20533;-81
2022/11/10 05:03:36;;;;;;;109.40;44.72;;;3.10;99.90;;;;;;5072102;28;20027;-81
2022/11/10 05:06:02;;;;;;;100.68;45.55;;;3.20;99.90;;;;;;5073597;28;20032;-80
2022/11/10 05:08:27;;;;;;;106.82;43.88;;;3.20;99.90;;;;;;5072240;28;20016;-81
2022/11/10 05:10:53;;;;;;;113.45;49.08;;;3.30;99.90;;;;;;5073292;28;20401;-82
2022/11/10 05:13:18;;;;;;;161.82;70.30;;;3.40;99.90;;;;;;5072097;28;20443;-82
2022/11/10 05:15:44;;;;;;;148.38;65.32;;;3.40;99.90;;;;;;5073402;28;20054;-82
2022/11/10 05:18:10;;;;;;;228.07;103.85;;;3.40;99.90;;;;;;5073318;28;20048;-82
2022/11/10 05:20:36;;;;;;;137.07;65.30;;;3.40;99.90;;;;;;5082157;28;20055;-81
2022/11/10 05:25:45;;;;;;;100.78;41.42;;;3.60;99.90;;;;;;5093507;28;20089;-81
2022/11/10 05:28:12;;;;;;;109.05;42.53;;;3.70;99.90;;;;;;5093507;28;20028;-82
2022/11/10 05:30:38;;;;;;;110.97;43.20;;;3.90;99.90;;;;;;5093576;28;20095;-82
2022/11/10 05:33:05;;;;;;;107.80;41.40;;;4.00;99.90;;;;;;5090436;28;20478;-81
2022/11/10 05:35:31;;;;;;;115.30;44.65;;;4.10;99.90;;;;;;5073100;28;20035;-81
2022/11/10 05:37:57;;;;;;;129.00;48.58;;;4.20;99.90;;;;;;5071803;28;20428;-83
2022/11/10 05:40:23;;;;;;;148.00;53.33;;;4.30;99.90;;;;;;5071646;28;20030;-81
2022/11/10 05:42:51;;;;;;;141.98;54.10;;;4.40;99.90;;;;;;5071790;28;20043;-82
2022/11/10 05:45:22;;;;;;;148.95;53.67;;;4.40;99.90;;;;;;5072086;28;20071;-83
2022/11/10 05:47:48;;;;;;;140.07;52.50;;;4.50;99.90;;;;;;5071671;28;20025;-81
2022/11/10 05:50:15;;;;;;;139.93;48.95;;;4.50;99.90;;;;;;5088626;28;20031;-81
2022/11/10 05:52:49;;;;;;;131.90;51.13;;;4.60;99.90;;;;;;5089393;28;20029;-80
2022/11/10 05:55:16;;;;;;;131.25;49.67;;;4.60;99.90;;;;;;5088832;28;20058;-81
2022/11/10 05:57:43;;;;;;;137.02;48.10;;;4.60;99.90;;;;;;5072364;28;20590;-81
2022/11/10 06:00:09;;;;;;;137.88;49.47;;;4.80;99.90;;;;;;5083710;28;20477;-81
2022/11/10 06:02:35;;;;;;;121.57;47.97;;;4.70;99.90;;;;;;5080761;28;20036;-80
2022/11/10 06:05:02;;;;;;;158.23;52.85;;;4.70;99.90;;;;;;5100036;28;20363;-81
2022/11/10 06:07:27;;;;;;;129.25;46.42;;;4.80;99.90;;;;;;5091666;28;20028;-82
2022/11/10 06:09:53;;;;;;;122.25;48.92;;;4.80;99.90;;;;;;5089006;28;20537;-82
2022/11/10 06:12:19;;;;;;;166.15;66.53;;;4.80;99.90;;;;;;5106483;28;20105;-81
2022/11/10 06:14:44;;;;;;;140.82;61.67;;;4.80;99.90;;;;;;5091722;28;20131;-83
2022/11/10 06:17:11;;;;;;;140.38;54.33;;;4.80;99.90;;;;;;5081314;28;20086;-81
2022/11/10 06:19:36;;;;;;;103.68;45.63;;;4.80;99.90;;;;;;5108227;28;20032;-81
2022/11/10 06:22:02;;;;;;;113.85;47.65;;;4.80;99.90;;;;;;5068719;28;20036;-80
2022/11/10 06:24:28;;;;;;;104.95;45.67;;;4.80;99.90;;;;;;5091663;28;20044;-80
2022/11/10 06:26:53;;;;;;;114.97;47.55;;;4.70;99.90;;;;;;5093334;28;20035;-81
2022/11/10 06:29:19;;;;;;;96.07;42.33;;;4.70;99.90;;;;;;5107512;28;20629;-81
2022/11/10 06:31:44;;;;;;;107.57;43.10;;;4.70;99.90;;;;;;5088847;28;20028;-81
2022/11/10 06:34:10;;;;;;;92.80;42.88;;;4.70;99.90;;;;;;5065038;28;20490;-81
2022/11/10 06:36:38;;;;;;;101.90;44.40;;;4.70;99.90;;;;;;5096562;28;20039;-81
2022/11/10 06:39:03;;;;;;;107.57;43.15;;;4.70;99.90;;;;;;5074921;28;20037;-80
2022/11/10 06:41:29;;;;;;;128.07;50.65;;;4.70;99.90;;;;;;5082755;28;20633;-81
2022/11/10 06:43:55;;;;;;;125.57;47.72;;;4.80;99.90;;;;;;5100164;28;20063;-80
2022/11/10 06:46:20;;;;;;;117.25;44.95;;;4.80;99.90;;;;;;5074400;28;20093;-81
2022/11/10 06:48:46;;;;;;;116.80;47.13;;;4.80;99.90;;;;;;5074439;28;20517;-81
2022/11/10 06:51:11;;;;;;;129.68;48.55;;;4.90;99.90;;;;;;5074042;28;20036;-81
2022/11/10 06:53:37;;;;;;;117.80;46.72;;;4.90;99.90;;;;;;5075012;28;20487;-81
2022/11/10 06:56:03;;;;;;;131.57;50.30;;;4.90;99.90;;;;;;5075369;28;20032;-80
2022/11/10 06:58:28;;;;;;;118.80;47.65;;;5.00;99.90;;;;;;5075644;28;20099;-81
2022/11/10 07:00:54;;;;;;;122.50;46.17;;;5.00;99.90;;;;;;5075751;28;20025;-81
2022/11/10 07:03:19;;;;;;;112.38;46.25;;;5.00;99.90;;;;;;5075650;28;20032;-81
2022/11/10 07:05:45;;;;;;;99.07;41.92;;;5.00;99.90;;;;;;5075643;28;20438;-81
2022/11/10 07:08:14;;;;;;;138.40;49.22;;;5.10;99.90;;;;;;5074289;28;20028;-80
2022/11/10 07:10:41;;;;;;;126.13;48.67;;;5.10;99.90;;;;;;5091163;28;20028;-81
2022/11/10 07:13:08;;;;;;;138.85;52.05;;;5.20;99.90;;;;;;5075466;28;20024;-81
2022/11/10 07:15:34;;;;;;;131.88;49.17;;;5.20;99.90;;;;;;5090906;28;20025;-81
2022/11/10 07:18:01;;;;;;;131.02;50.35;;;5.20;99.90;;;;;;5075414;28;20096;-81
2022/11/10 07:20:27;;;;;;;155.07;50.55;;;5.30;99.90;;;;;;5075316;28;20462;-81
2022/11/10 07:23:00;;;;;;;156.25;53.45;;;5.30;99.90;;;;;;5075310;28;20042;-80
2022/11/10 07:25:27;;;;;;;162.27;57.40;;;5.40;99.90;;;;;;5074198;28;20021;-80
2022/11/10 07:28:01;;;;;;;164.75;60.88;;;5.40;99.90;;;;;;5090813;28;20375;-80
2022/11/10 07:30:27;;;;;;;159.60;58.17;;;5.50;99.90;;;;;;5075249;28;20137;-80
2022/11/10 07:33:13;;;;;;;166.80;58.08;;;5.60;99.90;;;;;;5075216;28;20029;-81
2022/11/10 07:35:39;;;;;;;159.05;55.58;;;5.60;99.90;;;;;;5090596;28;20061;-81
2022/11/10 07:38:11;;;;;;;146.77;53.85;;;5.70;99.90;;;;;;5090425;28;20025;-80
2022/11/10 07:40:37;;;;;;;152.05;54.35;;;5.80;99.90;;;;;;5090496;28;20089;-81
2022/11/10 07:43:03;;;;;;;163.73;54.97;;;5.80;99.90;;;;;;5090585;28;20553;-81
2022/11/10 07:45:30;;;;;;;151.82;53.05;;;5.80;99.90;;;;;;5073852;28;20035;-81
2022/11/10 07:48:04;;;;;;;166.70;57.80;;;5.90;99.90;;;;;;5090423;28;20013;-81
2022/11/10 07:50:32;;;;;;;162.82;56.13;;;5.90;99.90;;;;;;5073445;28;20390;-81
2022/11/10 07:53:10;;;;;;;161.13;55.45;;;5.90;99.90;;;;;;5073511;28;20475;-81
2022/11/10 07:55:37;;;;;;;165.38;54.75;;;6.00;99.90;;;;;;5074630;28;20028;-81
2022/11/10 07:58:03;;;;;;;182.60;58.83;;;6.00;99.90;;;;;;5090297;28;20147;-81
2022/11/10 08:00:29;;;;;;;182.35;57.88;;;6.10;99.90;;;;;;5090105;28;20048;-81
2022/11/10 08:03:01;;;;;;;175.18;59.47;;;6.10;99.90;;;;;;5073335;28;20086;-81
2022/11/10 08:05:27;;;;;;;172.40;57.30;;;6.10;99.90;;;;;;5073090;28;20059;-81
2022/11/10 08:07:52;;;;;;;185.35;57.97;;;6.20;99.90;;;;;;5074562;28;20052;-81
2022/11/10 08:10:18;;;;;;;180.40;60.55;;;6.20;99.90;;;;;;5072993;28;20028;-81
2022/11/10 08:12:44;;;;;;;175.23;61.92;;;6.30;99.90;;;;;;5074484;28;20028;-81
2022/11/10 08:15:09;;;;;;;181.60;62.60;;;6.30;99.90;;;;;;5074178;28;20099;-81
2022/11/10 08:17:35;;;;;;;180.65;57.33;;;6.30;99.90;;;;;;5072952;28;20032;-81
2022/11/10 08:20:01;;;;;;;177.43;58.55;;;6.30;99.90;;;;;;5073991;28;20454;-81
2022/11/10 08:22:26;;;;;;;184.45;58.33;;;6.30;99.90;;;;;;5089786;28;20028;-81
2022/11/10 08:24:52;;;;;;;178.95;58.88;;;6.40;99.90;;;;;;5073933;28;20391;-81
2022/11/10 08:27:17;;;;;;;183.60;60.13;;;6.40;99.90;;;;;;5089986;28;20051;-81
2022/11/10 08:29:43;;;;;;;182.48;58.30;;;6.40;99.90;;;;;;5074078;28;20025;-80
2022/11/10 08:32:08;;;;;;;185.38;56.83;;;6.40;99.90;;;;;;5072812;28;20501;-81
2022/11/10 08:34:34;;;;;;;174.07;57.28;;;6.40;99.90;;;;;;5073802;28;20397;-80
2022/11/10 08:37:00;;;;;;;195.77;58.92;;;6.50;99.90;;;;;;5073664;28;20078;-80
2022/11/10 08:39:25;;;;;;;172.95;54.47;;;6.50;99.90;;;;;;5073769;28;20025;-81
2022/11/10 08:41:51;;;;;;;170.73;57.33;;;6.50;99.90;;;;;;5072516;28;20478;-81
2022/11/10 08:44:16;;;;;;;162.77;54.70;;;6.60;99.90;;;;;;5073570;28;20074;-81
2022/11/10 08:46:43;;;;;;;177.52;58.28;;;6.60;99.90;;;;;;5072346;28;20085;-81
2022/11/10 08:49:08;;;;;;;174.90;59.60;;;6.70;99.90;;;;;;5072274;28;20051;-81
2022/11/10 08:51:34;;;;;;;181.20;60.20;;;6.70;99.90;;;;;;5073686;28;20474;-81
2022/11/10 08:53:59;;;;;;;159.50;55.08;;;6.80;99.90;;;;;;5073317;28;20039;-81
2022/11/10 08:56:25;;;;;;;172.93;56.95;;;6.80;99.90;;;;;;5073459;28;20056;-81
2022/11/10 08:58:52;;;;;;;180.40;54.92;;;6.90;99.90;;;;;;5073516;28;20032;-81
2022/11/10 09:01:18;;;;;;;170.80;58.10;;;6.90;99.90;;;;;;5072110;28;20017;-81
2022/11/10 09:03:44;;;;;;;166.00;58.40;;;7.00;99.90;;;;;;5072183;28;20025;-81
2022/11/10 09:06:09;;;;;;;170.85;59.05;;;7.00;99.90;;;;;;5071989;28;20020;-81
2022/11/10 09:08:37;;;;;;;190.77;59.17;;;7.00;99.90;;;;;;5073374;28;20031;-81
2022/11/10 09:11:03;;;;;;;198.02;60.95;;;7.10;99.90;;;;;;5073156;28;20017;-81
2022/11/10 09:13:28;;;;;;;167.80;54.65;;;7.10;99.90;;;;;;5071915;28;20016;-81
2022/11/10 09:15:54;;;;;;;189.35;57.60;;;7.10;99.90;;;;;;5073142;28;20107;-81
2022/11/10 09:18:20;;;;;;;189.75;57.25;;;7.20;99.90;;;;;;5071984;28;20021;-80
2022/11/10 09:20:45;;;;;;;180.40;57.45;;;7.20;99.90;;;;;;5082963;28;20538;-81
2022/11/10 09:23:14;;;;;;;173.23;55.67;;;7.20;99.90;;;;;;5092037;28;20024;-81
2022/11/10 09:25:40;;;;;;;179.02;56.83;;;7.10;99.90;;;;;;5093305;28;20024;-81
2022/11/10 09:28:14;;;;;;;165.15;58.17;;;7.20;99.90;;;;;;5108964;28;20381;-81
2022/11/10 09:30:40;;;;;;;181.27;56.13;;;7.20;99.90;;;;;;5091949;28;20016;-81
2022/11/10 09:33:06;;;;;;;192.95;57.20;;;7.20;99.90;;;;;;5105873;28;20025;-81
2022/11/10 09:35:32;;;;;;;168.32;54.38;;;7.20;99.90;;;;;;5071599;28;20027;-81
2022/11/10 09:37:57;;;;;;;175.32;55.58;;;7.20;99.90;;;;;;5071865;28;20028;-81
2022/11/10 09:40:47;;;;;;;193.88;58.22;;;7.20;99.90;;;;;;5073068;28;20025;-81
2022/11/10 09:43:20;;;;;;;165.32;56.58;;;7.20;99.90;;;;;;5073197;28;20017;-81
2022/11/10 09:45:50;;;;;;;175.10;60.00;;;7.20;99.90;;;;;;5073268;28;20024;-81
2022/11/10 09:48:29;;;;;;;188.05;58.58;;;7.20;99.90;;;;;;5088133;28;20398;-82
2022/11/10 09:51:03;;;;;;;199.30;60.20;;;7.20;99.90;;;;;;5073138;28;20024;-81
2022/11/10 09:53:39;;;;;;;187.70;55.65;;;7.20;99.90;;;;;;5071942;28;20055;-82
2022/11/10 09:56:06;;;;;;;172.05;54.00;;;7.20;99.90;;;;;;5071687;28;20032;-82
2022/11/10 09:58:38;;;;;;;188.63;56.50;;;7.30;99.90;;;;;;5073130;28;20386;-81
2022/11/10 10:01:06;;;;;;;192.83;56.90;;;7.30;99.90;;;;;;5088585;28;20020;-81
2022/11/10 10:03:35;;;;;;;188.85;54.80;;;7.30;99.90;;;;;;5071797;28;20267;-82
2022/11/10 10:06:11;;;;;;;192.35;57.75;;;7.30;99.90;;;;;;5071732;28;20513;-81
2022/11/10 10:08:55;;;;;;;174.75;58.78;;;7.40;99.90;;;;;;5073181;28;20020;-82
2022/11/10 10:11:30;;;;;;;822.80;367.50;;;7.40;99.90;;;;;;5072967;28;20028;-81
2022/11/10 10:14:30;;;;;;;859.50;362.35;;;7.50;99.90;;;;;;5072856;28;20048;-82
2022/11/10 10:17:03;;;;;;;626.38;225.23;;;7.50;99.90;;;;;;5040019;28;20037;-82
2022/11/10 10:19:45;;;;;;;443.45;140.32;;;7.50;99.90;;;;;;5072932;28;20044;-82
2022/11/10 10:22:30;;;;;;;225.60;75.78;;;7.60;99.90;;;;;;5072944;28;20075;-82
2022/11/10 10:25:01;;;;;;;196.27;65.22;;;7.60;99.90;;;;;;5071578;28;20111;-82
2022/11/10 10:27:28;;;;;;;161.45;57.85;;;7.60;99.90;;;;;;5088442;28;20094;-82
2022/11/10 10:29:54;;;;;;;178.90;61.30;;;7.60;99.90;;;;;;5072837;28;20024;-81
2022/11/10 10:32:23;;;;;;;189.90;61.63;;;7.70;99.90;;;;;;5072731;28;20104;-82
2022/11/10 10:34:48;;;;;;;172.23;57.97;;;7.70;99.90;;;;;;5088266;28;20020;-82
2022/11/10 10:37:42;;;;;;;144.15;51.85;;;7.60;99.90;;;;;;5071364;28;20043;-82
2022/11/10 10:40:14;;;;;;;178.40;59.25;;;7.70;99.90;;;;;;5088288;28;20068;-81
2022/11/10 10:42:40;;;;;;;157.95;57.50;;;7.70;99.90;;;;;;5072931;28;20048;-82
2022/11/10 10:45:16;;;;;;;156.82;57.78;;;7.70;99.90;;;;;;5072545;28;20036;-81
2022/11/10 10:47:41;;;;;;;160.30;57.25;;;7.80;99.90;;;;;;5072494;28;20559;-82
2022/11/10 10:50:25;;;;;;;135.98;50.88;;;7.80;99.90;;;;;;5088269;28;20028;-81
2022/11/10 10:53:15;;;;;;;134.05;51.17;;;7.80;99.90;;;;;;5071198;28;20075;-81
2022/11/10 10:55:51;;;;;;;153.13;58.47;;;7.80;99.90;;;;;;5088235;28;20028;-81
2022/11/10 10:58:29;;;;;;;151.98;59.35;;;7.90;99.90;;;;;;5071287;28;20474;-82
2022/11/10 11:01:05;;;;;;;164.82;63.35;;;7.90;99.90;;;;;;5076111;28;20063;-81
2022/11/10 11:03:42;;;;;;;137.18;54.28;;;8.00;99.90;;;;;;5091776;28;20444;-82
2022/11/10 11:06:13;;;;;;;131.73;58.70;;;8.00;99.90;;;;;;5076129;28;20032;-82
2022/11/10 11:08:59;;;;;;;131.80;58.40;;;8.00;99.90;;;;;;5076159;28;20044;-82
2022/11/10 11:11:31;;;;;;;102.85;42.28;;;8.00;99.90;;;;;;5064321;28;20071;-82
2022/11/10 11:14:19;;;;;;;137.55;60.88;;;8.00;99.90;;;;;;5074585;28;20447;-82
2022/11/10 11:16:55;;;;;;;101.05;39.03;;;8.00;99.90;;;;;;5070843;28;20590;-82
2022/11/10 11:19:28;;;;;;;113.95;49.28;;;8.00;99.90;;;;;;5086881;28;20350;-82
2022/11/10 11:22:22;;;;;;;99.82;41.70;;;8.00;99.90;;;;;;5087409;28;20487;-83
2022/11/10 11:25:08;;;;;;;159.48;63.58;;;8.00;99.90;;;;;;5072814;28;20455;-82
2022/11/10 11:28:11;;;;;;;96.05;38.28;;;8.10;99.90;;;;;;5070553;28;20078;-82
2022/11/10 11:31:02;;;;;;;104.10;41.58;;;8.10;99.90;;;;;;5071825;28;20060;-82
2022/11/10 11:33:38;;;;;;;111.78;41.97;;;8.10;99.90;;;;;;5076611;28;20032;-82
2022/11/10 11:36:18;;;;;;;141.10;62.45;;;8.10;99.90;;;;;;5069415;28;20490;-83
2022/11/10 11:38:52;;;;;;;224.77;104.25;;;8.20;99.90;;;;;;5072062;28;20025;-82
2022/11/10 11:41:27;;;;;;;127.20;60.58;;;8.20;99.90;;;;;;5071172;28;20051;-82
2022/11/10 11:44:00;;;;;;;86.88;39.28;;;8.30;99.90;;;;;;5074414;28;20096;-82
2022/11/10 11:47:06;;;;;;;98.20;44.85;;;8.40;99.90;;;;;;5070957;28;20047;-81
2022/11/10 11:49:50;;;;;;;88.78;39.53;;;8.50;99.90;;;;;;5040318;28;20044;-83
2022/11/10 11:52:54;;;;;;;93.45;50.70;;;8.50;99.90;;;;;;5070781;28;20429;-83
2022/11/10 11:55:43;;;;;;;85.25;40.17;;;8.60;99.90;;;;;;5079062;28;20094;-82
2022/11/10 11:58:43;;;;;;;63.55;31.75;;;8.70;99.90;;;;;;5109116;28;20059;-83
2022/11/10 12:01:17;;;;;;;69.18;31.73;;;8.70;99.90;;;;;;5108983;28;20534;-81
2022/11/10 12:03:51;;;;;;;63.97;29.58;;;8.70;99.90;;;;;;5074508;28;20444;-82
2022/11/10 12:06:32;;;;;;;61.00;32.20;;;8.80;99.90;;;;;;5071973;28;20111;-82
2022/11/10 12:09:04;;;;;;;53.88;27.65;;;8.90;99.90;;;;;;5074351;28;20119;-82
2022/11/10 12:12:00;;;;;;;53.60;26.45;;;8.90;99.90;;;;;;5067507;28;20021;-82
2022/11/10 12:14:35;;;;;;;54.72;25.20;;;8.90;99.90;;;;;;5074547;28;20024;-82
2022/11/10 12:17:16;;;;;;;54.75;25.42;;;8.90;99.90;;;;;;5067667;28;20048;-82
2022/11/10 12:19:52;;;;;;;47.17;24.45;;;9.00;99.90;;;;;;5069126;28;20032;-82
2022/11/10 12:22:42;;;;;;;54.30;26.55;;;9.00;99.90;;;;;;5071766;28;20036;-82
2022/11/10 12:25:46;;;;;;;55.17;27.60;;;9.00;99.90;;;;;;5072303;28;20519;-82
2022/11/10 12:28:22;;;;;;;;;;;9.00;99.90;;;;;;5063247;28;20072;-82
2022/11/10 12:30:52;;;;;;;86.28;38.28;;;9.00;99.90;;;;;;5096777;27;19905;-82
2022/11/10 12:33:34;;;;;;;93.70;45.10;;;9.00;99.90;;;;;;5070317;28;20447;-81
2022/11/10 12:36:04;;;;;;;82.65;40.75;;;9.00;99.90;;;;;;5072704;28;20033;-82
2022/11/10 12:39:00;;;;;;;71.05;33.90;;;9.10;99.90;;;;;;5070501;28;20478;-82
2022/11/10 12:41:33;;;;;;;64.20;33.45;;;9.10;99.90;;;;;;5070381;28;20055;-82
2022/11/10 12:44:02;;;;;;;69.88;38.53;;;9.20;99.90;;;;;;5070578;28;20009;-82
2022/11/10 12:46:27;;;;;;;50.97;27.73;;;9.30;99.90;;;;;;5071844;28;20032;-82
2022/11/10 12:49:18;;;;;;;52.30;27.73;;;9.40;99.90;;;;;;5071564;28;20074;-82
2022/11/10 12:52:17;;;;;;;49.58;24.13;;;9.50;99.90;;;;;;5072007;28;20039;-82
2022/11/10 12:54:45;;;;;;;42.50;21.77;;;9.60;99.90;;;;;;5071803;28;20039;-82